sensor_id;sensor_type;location;lat;lon;timestamp;temperature;humidity
66184;DHT22;52989;48.796;9.806;2022-09-09T00:00:47;12.20;99.90
66184;DHT22;52989;48.796;9.806;2022-09-09T00:03:17;12.40;99.90
66184;DHT22;52989;48.796;9.806;2022-09-09T00:06:06;12.20;99.90
66184;DHT22;52989;48.796;9.806;2022-09-09T00:11:41;12.50;99.90
66184;DHT22;52989;48.796;9.806;2022-09-09T00:14:32;12.70;99.90
66184;DHT22;52989;48.796;9.806;2022-09-09T00:17:09;12.70;99.90
66184;DHT22;52989;48.796;9.806;2022-09-09T00:19:53;12.30;99.90
66184;DHT22;52989;48.796;9.806;2022-09-09T00:22:23;12.20;99.90
66184;DHT22;52989;48.796;9.806;2022-09-09T00:24:53;12.80;99.90
66184;DHT22;52989;48.796;9.806;2022-09-09T00:27:33;12.40;99.90
66184;DHT22;52989;48.796;9.806;2022-09-09T00:30:19;12.20;99.90
66184;DHT22;52989;48.796;9.806;2022-09-09T00:32:46;12.30;99.90
66184;DHT22;52989;48.796;9.806;2022-09-09T00:35:17;12.40;99.90
66184;DHT22;52989;48.796;9.806;2022-09-09T00:37:48;12.20;99.90
66184;DHT22;52989;48.796;9.806;2022-09-09T00:40:39;12.30;99.90
66184;DHT22;52989;48.796;9.806;2022-09-09T00:43:28;13.00;99.90
66184;DHT22;52989;48.796;9.806;2022-09-09T00:49:15;12.50;99.90
66184;DHT22;52989;48.796;9.806;2022-09-09T00:52:08;12.60;99.90
66184;DHT22;52989;48.796;9.806;2022-09-09T00:54:52;12.30;99.90
66184;DHT22;52989;48.796;9.806;2022-09-09T00:57:25;12.50;99.90
66184;DHT22;52989;48.796;9.806;2022-09-09T01:02:46;12.20;99.90
66184;DHT22;52989;48.796;9.806;2022-09-09T01:07:49;12.60;99.90
66184;DHT22;52989;48.796;9.806;2022-09-09T01:10:29;12.60;99.90
66184;DHT22;52989;48.796;9.806;2022-09-09T01:12:58;12.60;99.90
66184;DHT22;52989;48.796;9.806;2022-09-09T01:15:29;12.60;99.90
66184;DHT22;52989;48.796;9.806;2022-09-09T01:18:07;12.90;99.90
66184;DHT22;52989;48.796;9.806;2022-09-09T01:20:57;13.10;99.90
66184;DHT22;52989;48.796;9.806;2022-09-09T01:26:11;12.80;99.90
66184;DHT22;52989;48.796;9.806;2022-09-09T01:28:40;12.90;99.90
66184;DHT22;52989;48.796;9.806;2022-09-09T01:31:10;13.20;99.90
66184;DHT22;52989;48.796;9.806;2022-09-09T01:33:37;13.00;99.90
66184;DHT22;52989;48.796;9.806;2022-09-09T01:39:05;13.20;99.90
66184;DHT22;52989;48.796;9.806;2022-09-09T01:41:30;13.50;99.90
66184;DHT22;52989;48.796;9.806;2022-09-09T01:43:57;12.80;99.90
66184;DHT22;52989;48.796;9.806;2022-09-09T01:46:23;13.10;99.90
66184;DHT22;52989;48.796;9.806;2022-09-09T01:48:51;13.40;99.90
66184;DHT22;52989;48.796;9.806;2022-09-09T01:51:18;13.60;99.90
66184;DHT22;52989;48.796;9.806;2022-09-09T01:53:44;13.00;99.90
66184;DHT22;52989;48.796;9.806;2022-09-09T01:56:19;13.70;99.90
66184;DHT22;52989;48.796;9.806;2022-09-09T01:59:01;12.80;99.90
66184;DHT22;52989;48.796;9.806;2022-09-09T02:05:23;12.60;99.90
66184;DHT22;52989;48.796;9.806;2022-09-09T02:07:42;12.50;99.90
66184;DHT22;52989;48.796;9.806;2022-09-09T02:10:22;12.40;99.90
66184;DHT22;52989;48.796;9.806;2022-09-09T02:12:54;12.60;99.90
66184;DHT22;52989;48.796;9.806;2022-09-09T02:15:30;13.00;99.90
66184;DHT22;52989;48.796;9.806;2022-09-09T02:17:58;12.50;99.90
66184;DHT22;52989;48.796;9.806;2022-09-09T02:20:26;12.30;99.90
66184;DHT22;52989;48.796;9.806;2022-09-09T02:22:54;12.90;99.90
66184;DHT22;52989;48.796;9.806;2022-09-09T02:25:23;12.80;99.90
66184;DHT22;52989;48.796;9.806;2022-09-09T02:27:51;12.40;99.90
66184;DHT22;52989;48.796;9.806;2022-09-09T02:30:18;12.80;99.90
66184;DHT22;52989;48.796;9.806;2022-09-09T02:32:47;12.60;99.90
66184;DHT22;52989;48.796;9.806;2022-09-09T02:35:20;13.00;99.90
66184;DHT22;52989;48.796;9.806;2022-09-09T02:37:46;12.50;99.90
66184;DHT22;52989;48.796;9.806;2022-09-09T02:40:13;12.20;99.90
66184;DHT22;52989;48.796;9.806;2022-09-09T02:42:46;12.30;99.90
66184;DHT22;52989;48.796;9.806;2022-09-09T02:45:15;12.10;99.90
66184;DHT22;52989;48.796;9.806;2022-09-09T02:50:52;11.90;99.90
66184;DHT22;52989;48.796;9.806;2022-09-09T02:53:27;12.10;99.90
66184;DHT22;52989;48.796;9.806;2022-09-09T02:56:08;12.40;99.90
66184;DHT22;52989;48.796;9.806;2022-09-09T02:58:35;12.10;99.90
66184;DHT22;52989;48.796;9.806;2022-09-09T03:01:02;12.90;99.90
66184;DHT22;52989;48.796;9.806;2022-09-09T03:03:28;12.20;99.90
66184;DHT22;52989;48.796;9.806;2022-09-09T03:05:55;12.60;99.90
66184;DHT22;52989;48.796;9.806;2022-09-09T03:08:22;12.10;99.90
66184;DHT22;52989;48.796;9.806;2022-09-09T03:10:47;12.30;99.90
66184;DHT22;52989;48.796;9.806;2022-09-09T03:13:13;11.90;99.90
66184;DHT22;52989;48.796;9.806;2022-09-09T03:15:40;11.70;99.90
66184;DHT22;52989;48.796;9.806;2022-09-09T03:18:06;11.60;99.90
66184;DHT22;52989;48.796;9.806;2022-09-09T03:20:33;12.50;99.90
66184;DHT22;52989;48.796;9.806;2022-09-09T03:23:01;12.60;99.90
66184;DHT22;52989;48.796;9.806;2022-09-09T03:25:27;13.20;99.90
66184;DHT22;52989;48.796;9.806;2022-09-09T03:27:54;14.00;99.90
66184;DHT22;52989;48.796;9.806;2022-09-09T03:30:21;13.20;99.90
66184;DHT22;52989;48.796;9.806;2022-09-09T03:32:47;12.80;99.90
66184;DHT22;52989;48.796;9.806;2022-09-09T03:35:13;12.50;99.90
66184;DHT22;52989;48.796;9.806;2022-09-09T03:37:39;12.40;99.90
66184;DHT22;52989;48.796;9.806;2022-09-09T03:40:04;12.80;99.90
66184;DHT22;52989;48.796;9.806;2022-09-09T03:42:31;12.50;99.90
66184;DHT22;52989;48.796;9.806;2022-09-09T03:44:57;13.40;99.90
66184;DHT22;52989;48.796;9.806;2022-09-09T03:47:23;13.00;99.90
66184;DHT22;52989;48.796;9.806;2022-09-09T03:49:48;13.50;99.90
66184;DHT22;52989;48.796;9.806;2022-09-09T03:52:15;12.90;99.90
66184;DHT22;52989;48.796;9.806;2022-09-09T03:54:41;12.50;99.90
66184;DHT22;52989;48.796;9.806;2022-09-09T03:57:08;12.40;99.90
66184;DHT22;52989;48.796;9.806;2022-09-09T03:59:34;12.40;99.90
66184;DHT22;52989;48.796;9.806;2022-09-09T04:02:00;12.10;99.90
66184;DHT22;52989;48.796;9.806;2022-09-09T04:04:26;12.00;99.90
66184;DHT22;52989;48.796;9.806;2022-09-09T04:06:52;12.00;99.90
66184;DHT22;52989;48.796;9.806;2022-09-09T04:09:18;11.90;99.90
66184;DHT22;52989;48.796;9.806;2022-09-09T04:11:44;12.00;99.90
66184;DHT22;52989;48.796;9.806;2022-09-09T04:14:13;12.10;99.90
66184;DHT22;52989;48.796;9.806;2022-09-09T04:16:39;13.10;99.90
66184;DHT22;52989;48.796;9.806;2022-09-09T04:19:05;13.10;99.90
66184;DHT22;52989;48.796;9.806;2022-09-09T04:21:32;12.60;99.90
66184;DHT22;52989;48.796;9.806;2022-09-09T04:23:58;12.30;99.90
66184;DHT22;52989;48.796;9.806;2022-09-09T04:26:24;12.20;99.90
66184;DHT22;52989;48.796;9.806;2022-09-09T04:28:50;12.10;99.90
66184;DHT22;52989;48.796;9.806;2022-09-09T04:31:20;12.10;99.90
66184;DHT22;52989;48.796;9.806;2022-09-09T04:33:51;12.10;99.90
66184;DHT22;52989;48.796;9.806;2022-09-09T04:36:17;12.10;99.90
66184;DHT22;52989;48.796;9.806;2022-09-09T04:38:45;12.20;99.90
66184;DHT22;52989;48.796;9.806;2022-09-09T04:41:11;12.10;99.90
66184;DHT22;52989;48.796;9.806;2022-09-09T04:43:37;12.20;99.90
66184;DHT22;52989;48.796;9.806;2022-09-09T04:46:03;13.00;99.90
66184;DHT22;52989;48.796;9.806;2022-09-09T04:48:30;14.00;99.90
66184;DHT22;52989;48.796;9.806;2022-09-09T04:51:08;14.50;99.90
66184;DHT22;52989;48.796;9.806;2022-09-09T04:53:34;13.30;99.90
66184;DHT22;52989;48.796;9.806;2022-09-09T04:56:06;13.00;99.90
66184;DHT22;52989;48.796;9.806;2022-09-09T04:58:32;12.70;99.90
66184;DHT22;52989;48.796;9.806;2022-09-09T05:01:08;13.00;99.90
66184;DHT22;52989;48.796;9.806;2022-09-09T05:03:34;13.60;99.90
66184;DHT22;52989;48.796;9.806;2022-09-09T05:06:08;13.70;99.90
66184;DHT22;52989;48.796;9.806;2022-09-09T05:08:35;12.80;99.90
66184;DHT22;52989;48.796;9.806;2022-09-09T05:11:01;12.50;99.90
66184;DHT22;52989;48.796;9.806;2022-09-09T05:13:27;12.20;99.90
66184;DHT22;52989;48.796;9.806;2022-09-09T05:15:54;12.20;99.90
66184;DHT22;52989;48.796;9.806;2022-09-09T05:18:19;13.50;99.90
66184;DHT22;52989;48.796;9.806;2022-09-09T05:20:45;13.60;99.90
66184;DHT22;52989;48.796;9.806;2022-09-09T05:23:11;13.30;99.90
66184;DHT22;52989;48.796;9.806;2022-09-09T05:25:38;13.50;99.90
66184;DHT22;52989;48.796;9.806;2022-09-09T05:28:04;12.70;99.90
66184;DHT22;52989;48.796;9.806;2022-09-09T05:30:30;12.40;99.90
66184;DHT22;52989;48.796;9.806;2022-09-09T05:32:56;13.80;99.90
66184;DHT22;52989;48.796;9.806;2022-09-09T05:35:22;14.00;99.90
66184;DHT22;52989;48.796;9.806;2022-09-09T05:37:48;13.50;99.90
66184;DHT22;52989;48.796;9.806;2022-09-09T05:40:14;13.60;99.90
66184;DHT22;52989;48.796;9.806;2022-09-09T05:42:40;13.20;99.90
66184;DHT22;52989;48.796;9.806;2022-09-09T05:45:08;12.80;99.90
66184;DHT22;52989;48.796;9.806;2022-09-09T05:47:34;12.60;99.90
66184;DHT22;52989;48.796;9.806;2022-09-09T05:50:01;13.10;99.90
66184;DHT22;52989;48.796;9.806;2022-09-09T05:52:26;13.50;99.90
66184;DHT22;52989;48.796;9.806;2022-09-09T05:54:52;13.40;99.90
66184;DHT22;52989;48.796;9.806;2022-09-09T05:57:19;13.70;99.90
66184;DHT22;52989;48.796;9.806;2022-09-09T05:59:45;14.30;99.90
66184;DHT22;52989;48.796;9.806;2022-09-09T06:02:11;13.90;99.90
66184;DHT22;52989;48.796;9.806;2022-09-09T06:04:37;13.80;99.90
66184;DHT22;52989;48.796;9.806;2022-09-09T06:07:04;13.70;99.90
66184;DHT22;52989;48.796;9.806;2022-09-09T06:09:30;13.50;99.90
66184;DHT22;52989;48.796;9.806;2022-09-09T06:11:56;13.30;99.90
66184;DHT22;52989;48.796;9.806;2022-09-09T06:14:23;13.40;99.90
66184;DHT22;52989;48.796;9.806;2022-09-09T06:16:51;13.90;99.90
66184;DHT22;52989;48.796;9.806;2022-09-09T06:19:16;14.00;99.90
66184;DHT22;52989;48.796;9.806;2022-09-09T06:21:42;14.00;99.90
66184;DHT22;52989;48.796;9.806;2022-09-09T06:24:07;13.70;99.90
66184;DHT22;52989;48.796;9.806;2022-09-09T06:26:35;13.70;99.90
66184;DHT22;52989;48.796;9.806;2022-09-09T06:29:02;14.30;99.90
66184;DHT22;52989;48.796;9.806;2022-09-09T06:31:30;15.10;99.90
66184;DHT22;52989;48.796;9.806;2022-09-09T06:33:57;15.90;99.90
66184;DHT22;52989;48.796;9.806;2022-09-09T06:36:31;15.60;99.90
66184;DHT22;52989;48.796;9.806;2022-09-09T06:38:57;15.90;99.90
66184;DHT22;52989;48.796;9.806;2022-09-09T06:41:27;15.60;99.90
66184;DHT22;52989;48.796;9.806;2022-09-09T06:43:53;15.90;99.90
66184;DHT22;52989;48.796;9.806;2022-09-09T06:46:23;16.30;99.90
66184;DHT22;52989;48.796;9.806;2022-09-09T06:48:53;15.60;99.90
66184;DHT22;52989;48.796;9.806;2022-09-09T06:51:22;16.30;99.90
66184;DHT22;52989;48.796;9.806;2022-09-09T06:53:50;15.40;99.90
66184;DHT22;52989;48.796;9.806;2022-09-09T06:56:17;15.10;99.90
66184;DHT22;52989;48.796;9.806;2022-09-09T06:58:44;16.30;99.90
66184;DHT22;52989;48.796;9.806;2022-09-09T07:01:18;16.20;99.90
66184;DHT22;52989;48.796;9.806;2022-09-09T07:03:50;15.70;99.90
66184;DHT22;52989;48.796;9.806;2022-09-09T07:06:19;15.70;99.90
66184;DHT22;52989;48.796;9.806;2022-09-09T07:08:51;15.60;99.90
66184;DHT22;52989;48.796;9.806;2022-09-09T07:11:19;15.20;99.90
66184;DHT22;52989;48.796;9.806;2022-09-09T07:13:45;15.30;99.90
66184;DHT22;52989;48.796;9.806;2022-09-09T07:16:15;15.70;99.90
66184;DHT22;52989;48.796;9.806;2022-09-09T07:18:42;15.80;99.90
66184;DHT22;52989;48.796;9.806;2022-09-09T07:21:10;16.40;99.90
66184;DHT22;52989;48.796;9.806;2022-09-09T07:23:37;16.70;99.90
66184;DHT22;52989;48.796;9.806;2022-09-09T07:26:10;16.90;99.90
66184;DHT22;52989;48.796;9.806;2022-09-09T07:28:36;17.20;99.90
66184;DHT22;52989;48.796;9.806;2022-09-09T07:31:03;17.20;99.90
66184;DHT22;52989;48.796;9.806;2022-09-09T07:33:31;17.20;99.90
66184;DHT22;52989;48.796;9.806;2022-09-09T07:36:08;17.00;99.90
66184;DHT22;52989;48.796;9.806;2022-09-09T07:38:54;17.00;99.90
66184;DHT22;52989;48.796;9.806;2022-09-09T07:41:46;17.60;99.90
66184;DHT22;52989;48.796;9.806;2022-09-09T07:44:19;17.50;99.90
66184;DHT22;52989;48.796;9.806;2022-09-09T07:46:46;17.60;99.90
66184;DHT22;52989;48.796;9.806;2022-09-09T07:49:13;17.80;99.90
66184;DHT22;52989;48.796;9.806;2022-09-09T07:51:41;17.50;99.90
66184;DHT22;52989;48.796;9.806;2022-09-09T07:54:09;17.70;99.90
66184;DHT22;52989;48.796;9.806;2022-09-09T07:56:35;17.80;99.90
66184;DHT22;52989;48.796;9.806;2022-09-09T07:59:02;17.30;99.90
66184;DHT22;52989;48.796;9.806;2022-09-09T08:01:42;17.20;99.90
66184;DHT22;52989;48.796;9.806;2022-09-09T08:04:16;17.00;99.90
66184;DHT22;52989;48.796;9.806;2022-09-09T08:06:48;16.90;99.90
66184;DHT22;52989;48.796;9.806;2022-09-09T08:09:14;17.00;99.90
66184;DHT22;52989;48.796;9.806;2022-09-09T08:11:41;17.20;99.90
66184;DHT22;52989;48.796;9.806;2022-09-09T08:14:08;17.20;99.90
66184;DHT22;52989;48.796;9.806;2022-09-09T08:16:37;17.20;99.90
66184;DHT22;52989;48.796;9.806;2022-09-09T08:19:04;17.40;99.90
66184;DHT22;52989;48.796;9.806;2022-09-09T08:21:32;17.60;99.90
66184;DHT22;52989;48.796;9.806;2022-09-09T08:24:00;17.80;99.90
66184;DHT22;52989;48.796;9.806;2022-09-09T08:26:27;17.90;99.50
66184;DHT22;52989;48.796;9.806;2022-09-09T08:28:55;17.90;99.90
66184;DHT22;52989;48.796;9.806;2022-09-09T08:31:52;18.00;99.90
66184;DHT22;52989;48.796;9.806;2022-09-09T08:34:21;18.00;99.90
66184;DHT22;52989;48.796;9.806;2022-09-09T08:36:48;18.00;99.90
66184;DHT22;52989;48.796;9.806;2022-09-09T08:39:16;17.90;99.90
66184;DHT22;52989;48.796;9.806;2022-09-09T08:41:59;18.00;99.90
66184;DHT22;52989;48.796;9.806;2022-09-09T08:44:57;18.40;99.10
66184;DHT22;52989;48.796;9.806;2022-09-09T08:53:12;18.70;97.90
66184;DHT22;52989;48.796;9.806;2022-09-09T08:58:17;19.00;98.00
66184;DHT22;52989;48.796;9.806;2022-09-09T09:01:19;19.10;97.40
66184;DHT22;52989;48.796;9.806;2022-09-09T09:09:46;19.00;96.30
66184;DHT22;52989;48.796;9.806;2022-09-09T09:12:23;19.50;96.60
66184;DHT22;52989;48.796;9.806;2022-09-09T09:14:50;19.00;96.50
66184;DHT22;52989;48.796;9.806;2022-09-09T09:17:19;19.10;95.90
66184;DHT22;52989;48.796;9.806;2022-09-09T09:19:46;19.20;96.70
66184;DHT22;52989;48.796;9.806;2022-09-09T09:22:24;18.90;96.30
66184;DHT22;52989;48.796;9.806;2022-09-09T09:25:12;19.20;96.90
66184;DHT22;52989;48.796;9.806;2022-09-09T09:30:24;19.80;95.50
66184;DHT22;52989;48.796;9.806;2022-09-09T09:32:59;19.80;94.60
66184;DHT22;52989;48.796;9.806;2022-09-09T09:35:26;20.10;95.50
66184;DHT22;52989;48.796;9.806;2022-09-09T09:37:52;20.40;94.70
66184;DHT22;52989;48.796;9.806;2022-09-09T09:40:20;20.40;94.30
66184;DHT22;52989;48.796;9.806;2022-09-09T09:42:56;20.20;94.70
66184;DHT22;52989;48.796;9.806;2022-09-09T09:45:43;20.30;93.60
66184;DHT22;52989;48.796;9.806;2022-09-09T09:48:13;20.40;94.10
66184;DHT22;52989;48.796;9.806;2022-09-09T09:50:57;20.40;93.60
66184;DHT22;52989;48.796;9.806;2022-09-09T09:53:31;20.60;94.20
66184;DHT22;52989;48.796;9.806;2022-09-09T09:58:32;20.40;93.70
66184;DHT22;52989;48.796;9.806;2022-09-09T10:01:00;20.20;93.60
66184;DHT22;52989;48.796;9.806;2022-09-09T10:03:31;20.20;93.20
66184;DHT22;52989;48.796;9.806;2022-09-09T10:05:57;20.30;93.40
66184;DHT22;52989;48.796;9.806;2022-09-09T10:08:24;20.30;94.40
66184;DHT22;52989;48.796;9.806;2022-09-09T10:11:38;20.50;93.50
66184;DHT22;52989;48.796;9.806;2022-09-09T10:14:15;20.30;94.20
66184;DHT22;52989;48.796;9.806;2022-09-09T10:17:12;20.60;93.80
66184;DHT22;52989;48.796;9.806;2022-09-09T10:19:50;20.90;92.70
66184;DHT22;52989;48.796;9.806;2022-09-09T10:22:32;21.00;91.80
66184;DHT22;52989;48.796;9.806;2022-09-09T10:25:04;21.20;91.10
66184;DHT22;52989;48.796;9.806;2022-09-09T10:30:52;21.70;91.30
66184;DHT22;52989;48.796;9.806;2022-09-09T10:33:33;21.40;91.10
66184;DHT22;52989;48.796;9.806;2022-09-09T10:36:12;21.60;91.20
66184;DHT22;52989;48.796;9.806;2022-09-09T10:54:33;21.10;91.60
66184;DHT22;52989;48.796;9.806;2022-09-09T10:57:05;20.70;91.90
66184;DHT22;52989;48.796;9.806;2022-09-09T10:59:44;20.60;92.20
66184;DHT22;52989;48.796;9.806;2022-09-09T11:02:21;20.90;86.90
66184;DHT22;52989;48.796;9.806;2022-09-09T11:04:57;21.60;85.60
66184;DHT22;52989;48.796;9.806;2022-09-09T11:10:39;21.90;80.40
66184;DHT22;52989;48.796;9.806;2022-09-09T11:13:13;22.50;81.80
66184;DHT22;52989;48.796;9.806;2022-09-09T11:15:50;22.60;80.30
66184;DHT22;52989;48.796;9.806;2022-09-09T11:18:20;22.60;78.10
66184;DHT22;52989;48.796;9.806;2022-09-09T11:20:57;22.70;80.30
66184;DHT22;52989;48.796;9.806;2022-09-09T11:23:27;23.40;78.90
66184;DHT22;52989;48.796;9.806;2022-09-09T11:26:00;23.00;76.40
66184;DHT22;52989;48.796;9.806;2022-09-09T11:31:45;22.70;74.00
66184;DHT22;52989;48.796;9.806;2022-09-09T11:39:59;22.10;75.90
66184;DHT22;52989;48.796;9.806;2022-09-09T11:42:26;22.00;75.60
66184;DHT22;52989;48.796;9.806;2022-09-09T11:44:52;22.00;73.60
66184;DHT22;52989;48.796;9.806;2022-09-09T11:49:45;22.10;75.20
66184;DHT22;52989;48.796;9.806;2022-09-09T11:52:37;22.20;73.80
66184;DHT22;52989;48.796;9.806;2022-09-09T11:55:11;22.90;74.10
66184;DHT22;52989;48.796;9.806;2022-09-09T11:57:38;22.20;71.20
66184;DHT22;52989;48.796;9.806;2022-09-09T12:00:05;22.50;73.70
66184;DHT22;52989;48.796;9.806;2022-09-09T12:02:31;22.60;71.90
66184;DHT22;52989;48.796;9.806;2022-09-09T12:05:06;22.90;71.90
66184;DHT22;52989;48.796;9.806;2022-09-09T12:07:40;22.70;70.90
66184;DHT22;52989;48.796;9.806;2022-09-09T12:12:35;23.00;71.80
66184;DHT22;52989;48.796;9.806;2022-09-09T12:17:29;22.50;71.40
66184;DHT22;52989;48.796;9.806;2022-09-09T12:20:15;22.50;68.70
66184;DHT22;52989;48.796;9.806;2022-09-09T12:25:47;22.40;72.10
66184;DHT22;52989;48.796;9.806;2022-09-09T12:32:16;21.00;76.50
66184;DHT22;52989;48.796;9.806;2022-09-09T12:34:27;20.20;79.60
66184;DHT22;52989;48.796;9.806;2022-09-09T12:37:05;20.10;81.50
66184;DHT22;52989;48.796;9.806;2022-09-09T12:39:38;20.20;82.70
66184;DHT22;52989;48.796;9.806;2022-09-09T12:42:16;19.60;84.60
66184;DHT22;52989;48.796;9.806;2022-09-09T12:44:54;19.40;86.30
66184;DHT22;52989;48.796;9.806;2022-09-09T12:47:39;19.60;92.60
66184;DHT22;52989;48.796;9.806;2022-09-09T12:50:19;20.20;89.70
66184;DHT22;52989;48.796;9.806;2022-09-09T12:52:47;19.90;89.10
66184;DHT22;52989;48.796;9.806;2022-09-09T12:55:23;20.50;90.10
66184;DHT22;52989;48.796;9.806;2022-09-09T12:57:51;20.30;87.80
66184;DHT22;52989;48.796;9.806;2022-09-09T13:00:22;20.10;87.80
66184;DHT22;52989;48.796;9.806;2022-09-09T13:02:55;20.10;86.60
66184;DHT22;52989;48.796;9.806;2022-09-09T13:05:42;20.30;85.50
66184;DHT22;52989;48.796;9.806;2022-09-09T13:08:12;20.10;83.50
66184;DHT22;52989;48.796;9.806;2022-09-09T13:10:41;20.10;83.80
66184;DHT22;52989;48.796;9.806;2022-09-09T13:13:34;20.00;84.50
66184;DHT22;52989;48.796;9.806;2022-09-09T13:16:01;20.10;81.80
66184;DHT22;52989;48.796;9.806;2022-09-09T13:18:30;20.40;82.10
66184;DHT22;52989;48.796;9.806;2022-09-09T13:20:57;20.70;82.90
66184;DHT22;52989;48.796;9.806;2022-09-09T13:23:29;20.90;81.80
66184;DHT22;52989;48.796;9.806;2022-09-09T13:25:58;21.30;81.10
66184;DHT22;52989;48.796;9.806;2022-09-09T13:28:27;21.30;80.10
66184;DHT22;52989;48.796;9.806;2022-09-09T13:33:38;21.00;78.10
66184;DHT22;52989;48.796;9.806;2022-09-09T13:36:09;21.30;77.30
66184;DHT22;52989;48.796;9.806;2022-09-09T13:38:53;21.70;77.30
66184;DHT22;52989;48.796;9.806;2022-09-09T13:41:24;21.70;76.10
66184;DHT22;52989;48.796;9.806;2022-09-09T13:43:51;21.40;77.40
66184;DHT22;52989;48.796;9.806;2022-09-09T13:48:58;22.30;75.00
66184;DHT22;52989;48.796;9.806;2022-09-09T13:51:34;22.30;76.60
66184;DHT22;52989;48.796;9.806;2022-09-09T13:54:00;21.90;73.80
66184;DHT22;52989;48.796;9.806;2022-09-09T13:56:26;22.00;76.20
66184;DHT22;52989;48.796;9.806;2022-09-09T13:58:52;22.10;75.70
66184;DHT22;52989;48.796;9.806;2022-09-09T14:01:17;22.30;75.90
66184;DHT22;52989;48.796;9.806;2022-09-09T14:03:43;22.40;75.50
66184;DHT22;52989;48.796;9.806;2022-09-09T14:06:10;22.20;74.60
66184;DHT22;52989;48.796;9.806;2022-09-09T14:08:36;22.00;75.60
66184;DHT22;52989;48.796;9.806;2022-09-09T14:11:03;21.70;75.50
66184;DHT22;52989;48.796;9.806;2022-09-09T14:13:29;22.00;77.10
66184;DHT22;52989;48.796;9.806;2022-09-09T14:15:54;21.20;77.00
66184;DHT22;52989;48.796;9.806;2022-09-09T14:18:20;21.20;76.70
66184;DHT22;52989;48.796;9.806;2022-09-09T14:20:47;21.10;79.40
66184;DHT22;52989;48.796;9.806;2022-09-09T14:23:13;21.40;78.90
66184;DHT22;52989;48.796;9.806;2022-09-09T14:25:40;21.50;77.50
66184;DHT22;52989;48.796;9.806;2022-09-09T14:28:11;21.60;78.40
66184;DHT22;52989;48.796;9.806;2022-09-09T14:30:39;21.70;75.30
66184;DHT22;52989;48.796;9.806;2022-09-09T14:33:05;21.90;77.20
66184;DHT22;52989;48.796;9.806;2022-09-09T14:35:31;21.80;75.40
66184;DHT22;52989;48.796;9.806;2022-09-09T14:37:58;21.90;75.50
66184;DHT22;52989;48.796;9.806;2022-09-09T14:40:24;22.10;75.30
66184;DHT22;52989;48.796;9.806;2022-09-09T14:42:49;22.20;74.30
66184;DHT22;52989;48.796;9.806;2022-09-09T14:45:15;22.10;74.10
66184;DHT22;52989;48.796;9.806;2022-09-09T14:47:40;21.70;73.70
66184;DHT22;52989;48.796;9.806;2022-09-09T14:50:07;21.80;72.80
66184;DHT22;52989;48.796;9.806;2022-09-09T14:52:34;22.00;73.60
66184;DHT22;52989;48.796;9.806;2022-09-09T14:55:00;22.20;72.90
66184;DHT22;52989;48.796;9.806;2022-09-09T14:57:26;22.20;75.40
66184;DHT22;52989;48.796;9.806;2022-09-09T14:59:51;22.20;75.20
66184;DHT22;52989;48.796;9.806;2022-09-09T15:02:17;22.10;70.40
66184;DHT22;52989;48.796;9.806;2022-09-09T15:04:42;22.00;69.70
66184;DHT22;52989;48.796;9.806;2022-09-09T15:07:09;22.00;71.10
66184;DHT22;52989;48.796;9.806;2022-09-09T15:09:36;21.90;70.60
66184;DHT22;52989;48.796;9.806;2022-09-09T15:12:02;22.10;73.20
66184;DHT22;52989;48.796;9.806;2022-09-09T15:14:28;22.10;72.90
66184;DHT22;52989;48.796;9.806;2022-09-09T15:16:53;22.00;69.70
66184;DHT22;52989;48.796;9.806;2022-09-09T15:19:19;21.70;70.50
66184;DHT22;52989;48.796;9.806;2022-09-09T15:21:45;21.90;69.70
66184;DHT22;52989;48.796;9.806;2022-09-09T15:24:10;22.00;68.50
66184;DHT22;52989;48.796;9.806;2022-09-09T15:26:38;21.70;69.10
66184;DHT22;52989;48.796;9.806;2022-09-09T15:29:03;21.60;68.70
66184;DHT22;52989;48.796;9.806;2022-09-09T15:31:30;21.70;68.40
66184;DHT22;52989;48.796;9.806;2022-09-09T15:33:58;21.90;69.50
66184;DHT22;52989;48.796;9.806;2022-09-09T15:36:32;21.70;69.10
66184;DHT22;52989;48.796;9.806;2022-09-09T15:38:59;21.60;70.20
66184;DHT22;52989;48.796;9.806;2022-09-09T15:41:25;21.70;69.80
66184;DHT22;52989;48.796;9.806;2022-09-09T15:43:54;21.80;69.40
66184;DHT22;52989;48.796;9.806;2022-09-09T15:46:39;21.70;74.50
66184;DHT22;52989;48.796;9.806;2022-09-09T15:49:13;21.70;69.40
66184;DHT22;52989;48.796;9.806;2022-09-09T15:51:40;21.70;69.60
66184;DHT22;52989;48.796;9.806;2022-09-09T15:54:08;21.90;69.20
66184;DHT22;52989;48.796;9.806;2022-09-09T15:56:34;21.90;69.20
66184;DHT22;52989;48.796;9.806;2022-09-09T15:59:00;21.80;70.80
66184;DHT22;52989;48.796;9.806;2022-09-09T16:01:27;21.90;68.90
66184;DHT22;52989;48.796;9.806;2022-09-09T16:03:53;21.70;69.60
66184;DHT22;52989;48.796;9.806;2022-09-09T16:06:21;21.50;68.30
66184;DHT22;52989;48.796;9.806;2022-09-09T16:08:49;21.40;69.40
66184;DHT22;52989;48.796;9.806;2022-09-09T16:11:24;21.40;69.20
66184;DHT22;52989;48.796;9.806;2022-09-09T16:13:52;21.60;70.90
66184;DHT22;52989;48.796;9.806;2022-09-09T16:16:20;21.20;67.50
66184;DHT22;52989;48.796;9.806;2022-09-09T16:18:48;21.20;69.40
66184;DHT22;52989;48.796;9.806;2022-09-09T16:21:21;21.20;69.60
66184;DHT22;52989;48.796;9.806;2022-09-09T16:23:49;21.30;71.00
66184;DHT22;52989;48.796;9.806;2022-09-09T16:26:16;21.10;70.30
66184;DHT22;52989;48.796;9.806;2022-09-09T16:28:42;21.00;69.30
66184;DHT22;52989;48.796;9.806;2022-09-09T16:31:11;20.70;69.00
66184;DHT22;52989;48.796;9.806;2022-09-09T16:33:39;20.90;70.40
66184;DHT22;52989;48.796;9.806;2022-09-09T16:36:06;20.80;70.20
66184;DHT22;52989;48.796;9.806;2022-09-09T16:38:32;20.70;71.30
66184;DHT22;52989;48.796;9.806;2022-09-09T16:40:59;20.40;71.50
66184;DHT22;52989;48.796;9.806;2022-09-09T16:43:25;20.20;71.90
66184;DHT22;52989;48.796;9.806;2022-09-09T16:45:50;20.10;74.60
66184;DHT22;52989;48.796;9.806;2022-09-09T16:48:16;20.50;74.50
66184;DHT22;52989;48.796;9.806;2022-09-09T16:50:41;20.20;73.20
66184;DHT22;52989;48.796;9.806;2022-09-09T16:53:07;20.00;76.30
66184;DHT22;52989;48.796;9.806;2022-09-09T16:55:41;19.80;78.10
66184;DHT22;52989;48.796;9.806;2022-09-09T16:58:10;19.80;76.10
66184;DHT22;52989;48.796;9.806;2022-09-09T17:00:36;19.80;78.30
66184;DHT22;52989;48.796;9.806;2022-09-09T17:03:01;19.80;80.00
66184;DHT22;52989;48.796;9.806;2022-09-09T17:05:28;20.10;79.10
66184;DHT22;52989;48.796;9.806;2022-09-09T17:07:54;20.10;76.20
66184;DHT22;52989;48.796;9.806;2022-09-09T17:10:24;20.40;78.40
66184;DHT22;52989;48.796;9.806;2022-09-09T17:12:50;19.90;74.20
66184;DHT22;52989;48.796;9.806;2022-09-09T17:15:16;19.80;74.90
66184;DHT22;52989;48.796;9.806;2022-09-09T17:17:43;19.80;75.10
66184;DHT22;52989;48.796;9.806;2022-09-09T17:20:11;19.80;74.70
66184;DHT22;52989;48.796;9.806;2022-09-09T17:22:37;19.80;74.20